Terminal Aerodrome Forecast
Issued by NWS

Home | Current Version | Previous Version | Text Only | Print | Product List | Glossary On
Versions: 1 2 3 4 5 6 7 8 9 10 11 12 13 14 15
000
FTAK31 PAFA 290340 AAA
TAFAGA
TAF AMD
PAGA 290340Z 2904/2924 VRB04KT P6SM VCSH FEW020 OVC060
     FM291000 30003KT P6SM VCSH SCT025 BKN035 OVC050
     FM292100 28003KT P6SM -SN BKN025 OVC050=

USA.gov is the U.S. government's official web portal to all federal, state and local government web resources and services.